sensor_id;sensor_type;location;lat;lon;timestamp;P1;durP1;ratioP1;P2;durP2;ratioP2
46330;SDS011;32049;52.346;4.870;2022-09-30T07:19:11;6.17;;;4.57;;
46330;SDS011;32049;52.346;4.870;2022-09-30T07:21:58;4.67;;;3.87;;
46330;SDS011;32049;52.346;4.870;2022-09-30T07:25:05;4.90;;;3.50;;
46330;SDS011;32049;52.346;4.870;2022-09-30T07:27:55;6.10;;;3.90;;
46330;SDS011;32049;52.346;4.870;2022-09-30T07:30:42;5.37;;;3.77;;
46330;SDS011;32049;52.346;4.870;2022-09-30T07:33:30;5.20;;;3.40;;
46330;SDS011;32049;52.346;4.870;2022-09-30T07:36:19;5.33;;;3.73;;
46330;SDS011;32049;52.346;4.870;2022-09-30T07:39:18;3.90;;;3.53;;
46330;SDS011;32049;52.346;4.870;2022-09-30T07:48:40;4.53;;;3.43;;
46330;SDS011;32049;52.346;4.870;2022-09-30T08:04:24;3.30;;;3.00;;
46330;SDS011;32049;52.346;4.870;2022-09-30T08:07:18;3.90;;;2.90;;
46330;SDS011;32049;52.346;4.870;2022-09-30T08:10:06;4.50;;;2.70;;
46330;SDS011;32049;52.346;4.870;2022-09-30T08:12:55;3.57;;;3.20;;
46330;SDS011;32049;52.346;4.870;2022-09-30T08:19:24;3.95;;;2.80;;
46330;SDS011;32049;52.346;4.870;2022-09-30T08:22:34;7.77;;;3.20;;
46330;SDS011;32049;52.346;4.870;2022-09-30T08:25:22;4.20;;;3.03;;
46330;SDS011;32049;52.346;4.870;2022-09-30T08:28:11;4.13;;;3.40;;
46330;SDS011;32049;52.346;4.870;2022-09-30T08:34:58;4.80;;;3.80;;
46330;SDS011;32049;52.346;4.870;2022-09-30T08:37:46;6.30;;;3.73;;
46330;SDS011;32049;52.346;4.870;2022-09-30T08:40:33;6.00;;;4.30;;
46330;SDS011;32049;52.346;4.870;2022-09-30T08:43:33;6.63;;;4.17;;
46330;SDS011;32049;52.346;4.870;2022-09-30T08:52:27;10.00;;;5.70;;
46330;SDS011;32049;52.346;4.870;2022-09-30T08:55:42;9.00;;;6.33;;
46330;SDS011;32049;52.346;4.870;2022-09-30T08:58:47;5.80;;;4.57;;
46330;SDS011;32049;52.346;4.870;2022-09-30T09:02:34;6.30;;;5.50;;
46330;SDS011;32049;52.346;4.870;2022-09-30T09:05:40;8.53;;;5.70;;
46330;SDS011;32049;52.346;4.870;2022-09-30T09:15:10;9.90;;;6.33;;
46330;SDS011;32049;52.346;4.870;2022-09-30T09:24:36;11.00;;;7.43;;
46330;SDS011;32049;52.346;4.870;2022-09-30T09:30:46;10.53;;;7.30;;
46330;SDS011;32049;52.346;4.870;2022-09-30T09:33:38;11.03;;;7.73;;
46330;SDS011;32049;52.346;4.870;2022-09-30T09:36:45;11.77;;;8.80;;
46330;SDS011;32049;52.346;4.870;2022-09-30T09:39:59;12.17;;;7.63;;
46330;SDS011;32049;52.346;4.870;2022-09-30T09:43:03;12.97;;;8.37;;
46330;SDS011;32049;52.346;4.870;2022-09-30T09:54:54;8.03;;;7.20;;
46330;SDS011;32049;52.346;4.870;2022-09-30T09:57:46;8.07;;;6.07;;
46330;SDS011;32049;52.346;4.870;2022-09-30T10:01:08;10.30;;;6.80;;
46330;SDS011;32049;52.346;4.870;2022-09-30T10:04:21;9.07;;;6.50;;
46330;SDS011;32049;52.346;4.870;2022-09-30T10:07:18;8.10;;;6.77;;
46330;SDS011;32049;52.346;4.870;2022-09-30T10:10:16;8.73;;;7.00;;
46330;SDS011;32049;52.346;4.870;2022-09-30T10:13:17;8.70;;;6.80;;
46330;SDS011;32049;52.346;4.870;2022-09-30T10:16:40;8.13;;;6.10;;
46330;SDS011;32049;52.346;4.870;2022-09-30T10:19:33;8.53;;;6.73;;
46330;SDS011;32049;52.346;4.870;2022-09-30T10:22:27;6.87;;;6.17;;
46330;SDS011;32049;52.346;4.870;2022-09-30T10:25:22;7.38;;;6.60;;
46330;SDS011;32049;52.346;4.870;2022-09-30T10:28:24;6.57;;;5.00;;
46330;SDS011;32049;52.346;4.870;2022-09-30T10:31:26;5.25;;;3.97;;
46330;SDS011;32049;52.346;4.870;2022-09-30T10:34:31;6.93;;;3.03;;
46330;SDS011;32049;52.346;4.870;2022-09-30T10:37:23;3.30;;;2.47;;
46330;SDS011;32049;52.346;4.870;2022-09-30T10:40:11;1.87;;;1.47;;
46330;SDS011;32049;52.346;4.870;2022-09-30T10:43:13;1.50;;;1.13;;
46330;SDS011;32049;52.346;4.870;2022-09-30T10:46:06;2.20;;;0.80;;
46330;SDS011;32049;52.346;4.870;2022-09-30T12:49:01;2.90;;;1.70;;
46330;SDS011;32049;52.346;4.870;2022-09-30T12:51:53;2.43;;;1.57;;
46330;SDS011;32049;52.346;4.870;2022-09-30T12:55:07;4.27;;;1.57;;
46330;SDS011;32049;52.346;4.870;2022-09-30T12:57:58;1.73;;;1.30;;
46330;SDS011;32049;52.346;4.870;2022-09-30T13:04:17;5.23;;;2.13;;
46330;SDS011;32049;52.346;4.870;2022-09-30T13:19:02;4.37;;;1.70;;
46330;SDS011;32049;52.346;4.870;2022-09-30T13:21:50;2.37;;;1.60;;
46330;SDS011;32049;52.346;4.870;2022-09-30T13:27:51;4.47;;;1.83;;
46330;SDS011;32049;52.346;4.870;2022-09-30T13:30:43;2.63;;;1.40;;
46330;SDS011;32049;52.346;4.870;2022-09-30T13:36:55;1.23;;;1.00;;
46330;SDS011;32049;52.346;4.870;2022-09-30T13:39:52;2.90;;;1.50;;
46330;SDS011;32049;52.346;4.870;2022-09-30T13:42:44;3.17;;;1.50;;
46330;SDS011;32049;52.346;4.870;2022-09-30T13:45:35;3.70;;;1.60;;
46330;SDS011;32049;52.346;4.870;2022-09-30T13:48:29;3.33;;;1.63;;
46330;SDS011;32049;52.346;4.870;2022-09-30T13:51:24;3.33;;;1.80;;
46330;SDS011;32049;52.346;4.870;2022-09-30T13:54:26;2.47;;;1.87;;
46330;SDS011;32049;52.346;4.870;2022-09-30T13:57:25;2.97;;;1.40;;
46330;SDS011;32049;52.346;4.870;2022-09-30T14:00:18;2.30;;;1.90;;
46330;SDS011;32049;52.346;4.870;2022-09-30T14:19:51;2.00;;;1.57;;
46330;SDS011;32049;52.346;4.870;2022-09-30T14:22:49;3.27;;;1.50;;
46330;SDS011;32049;52.346;4.870;2022-09-30T14:25:39;1.77;;;1.00;;
46330;SDS011;32049;52.346;4.870;2022-09-30T14:28:38;2.93;;;0.97;;
46330;SDS011;32049;52.346;4.870;2022-09-30T14:31:54;3.13;;;1.00;;
46330;SDS011;32049;52.346;4.870;2022-09-30T14:34:42;1.47;;;0.90;;
46330;SDS011;32049;52.346;4.870;2022-09-30T14:37:35;4.20;;;0.80;;
46330;SDS011;32049;52.346;4.870;2022-09-30T14:40:34;2.00;;;0.90;;
46330;SDS011;32049;52.346;4.870;2022-09-30T14:43:26;1.77;;;0.80;;
46330;SDS011;32049;52.346;4.870;2022-09-30T14:46:48;3.77;;;1.00;;
46330;SDS011;32049;52.346;4.870;2022-09-30T14:49:35;3.53;;;1.03;;
46330;SDS011;32049;52.346;4.870;2022-09-30T14:52:34;2.70;;;1.20;;
46330;SDS011;32049;52.346;4.870;2022-09-30T14:58:25;1.37;;;0.80;;
46330;SDS011;32049;52.346;4.870;2022-09-30T15:01:15;4.03;;;1.20;;
46330;SDS011;32049;52.346;4.870;2022-09-30T15:04:09;2.23;;;1.13;;
46330;SDS011;32049;52.346;4.870;2022-09-30T15:07:00;2.67;;;1.40;;
46330;SDS011;32049;52.346;4.870;2022-09-30T15:09:50;4.27;;;1.67;;
46330;SDS011;32049;52.346;4.870;2022-09-30T15:12:39;4.57;;;1.70;;
46330;SDS011;32049;52.346;4.870;2022-09-30T15:18:30;4.43;;;1.67;;
46330;SDS011;32049;52.346;4.870;2022-09-30T15:21:19;2.70;;;1.67;;
46330;SDS011;32049;52.346;4.870;2022-09-30T15:24:08;3.27;;;1.60;;
46330;SDS011;32049;52.346;4.870;2022-09-30T15:26:59;1.57;;;1.30;;
46330;SDS011;32049;52.346;4.870;2022-09-30T15:30:19;5.83;;;1.57;;
46330;SDS011;32049;52.346;4.870;2022-09-30T15:36:44;2.37;;;2.17;;
46330;SDS011;32049;52.346;4.870;2022-09-30T15:39:39;2.37;;;1.80;;
46330;SDS011;32049;52.346;4.870;2022-09-30T15:42:55;5.47;;;3.00;;
46330;SDS011;32049;52.346;4.870;2022-09-30T15:45:46;3.03;;;2.20;;
46330;SDS011;32049;52.346;4.870;2022-09-30T15:48:36;11.70;;;2.97;;
46330;SDS011;32049;52.346;4.870;2022-09-30T15:51:35;3.53;;;2.53;;
46330;SDS011;32049;52.346;4.870;2022-09-30T15:54:29;8.70;;;3.23;;
46330;SDS011;32049;52.346;4.870;2022-09-30T16:00:38;4.03;;;3.10;;
46330;SDS011;32049;52.346;4.870;2022-09-30T16:03:28;5.73;;;3.60;;
46330;SDS011;32049;52.346;4.870;2022-09-30T16:06:18;4.27;;;3.80;;
46330;SDS011;32049;52.346;4.870;2022-09-30T16:15:15;3.70;;;3.40;;
46330;SDS011;32049;52.346;4.870;2022-09-30T16:18:02;4.23;;;3.43;;
46330;SDS011;32049;52.346;4.870;2022-09-30T16:21:00;7.33;;;4.00;;
46330;SDS011;32049;52.346;4.870;2022-09-30T16:23:49;9.10;;;4.20;;
46330;SDS011;32049;52.346;4.870;2022-09-30T16:26:36;5.50;;;4.23;;
46330;SDS011;32049;52.346;4.870;2022-09-30T16:29:30;7.77;;;4.33;;
46330;SDS011;32049;52.346;4.870;2022-09-30T16:32:18;4.80;;;4.00;;
46330;SDS011;32049;52.346;4.870;2022-09-30T16:35:08;6.20;;;4.10;;
46330;SDS011;32049;52.346;4.870;2022-09-30T16:38:05;7.37;;;3.70;;
46330;SDS011;32049;52.346;4.870;2022-09-30T16:40:55;7.53;;;3.80;;
46330;SDS011;32049;52.346;4.870;2022-09-30T16:43:43;5.43;;;4.30;;
46330;SDS011;32049;52.346;4.870;2022-09-30T16:46:31;6.93;;;4.57;;
46330;SDS011;32049;52.346;4.870;2022-09-30T16:49:19;8.17;;;4.60;;
46330;SDS011;32049;52.346;4.870;2022-09-30T16:52:08;6.47;;;4.33;;
46330;SDS011;32049;52.346;4.870;2022-09-30T16:54:57;7.57;;;4.00;;
46330;SDS011;32049;52.346;4.870;2022-09-30T16:57:44;8.40;;;4.23;;
46330;SDS011;32049;52.346;4.870;2022-09-30T17:00:32;6.00;;;3.70;;
46330;SDS011;32049;52.346;4.870;2022-09-30T17:03:20;6.67;;;4.70;;
46330;SDS011;32049;52.346;4.870;2022-09-30T17:06:08;6.77;;;4.80;;
46330;SDS011;32049;52.346;4.870;2022-09-30T17:08:55;6.73;;;4.50;;
46330;SDS011;32049;52.346;4.870;2022-09-30T17:11:43;6.27;;;4.00;;
46330;SDS011;32049;52.346;4.870;2022-09-30T17:14:31;7.43;;;4.43;;
46330;SDS011;32049;52.346;4.870;2022-09-30T17:17:19;7.30;;;4.13;;
46330;SDS011;32049;52.346;4.870;2022-09-30T17:20:06;5.53;;;4.43;;
46330;SDS011;32049;52.346;4.870;2022-09-30T17:22:55;7.57;;;4.73;;
46330;SDS011;32049;52.346;4.870;2022-09-30T17:25:42;7.20;;;4.23;;
46330;SDS011;32049;52.346;4.870;2022-09-30T17:28:29;6.60;;;3.93;;
46330;SDS011;32049;52.346;4.870;2022-09-30T17:31:20;9.10;;;4.20;;
46330;SDS011;32049;52.346;4.870;2022-09-30T17:34:08;5.63;;;4.27;;
46330;SDS011;32049;52.346;4.870;2022-09-30T17:36:55;7.07;;;4.43;;
46330;SDS011;32049;52.346;4.870;2022-09-30T17:39:43;6.40;;;4.80;;
46330;SDS011;32049;52.346;4.870;2022-09-30T17:42:30;6.90;;;4.10;;
46330;SDS011;32049;52.346;4.870;2022-09-30T17:45:43;5.80;;;4.73;;
46330;SDS011;32049;52.346;4.870;2022-09-30T17:48:34;6.07;;;4.18;;
46330;SDS011;32049;52.346;4.870;2022-09-30T17:51:23;6.93;;;4.20;;
46330;SDS011;32049;52.346;4.870;2022-09-30T17:54:11;5.20;;;3.97;;
46330;SDS011;32049;52.346;4.870;2022-09-30T17:56:59;4.40;;;4.00;;
46330;SDS011;32049;52.346;4.870;2022-09-30T17:59:46;6.90;;;4.20;;
46330;SDS011;32049;52.346;4.870;2022-09-30T18:02:33;5.90;;;4.50;;
46330;SDS011;32049;52.346;4.870;2022-09-30T18:05:21;8.93;;;4.10;;
46330;SDS011;32049;52.346;4.870;2022-09-30T18:08:11;5.37;;;4.23;;
46330;SDS011;32049;52.346;4.870;2022-09-30T18:10:59;5.57;;;3.67;;
46330;SDS011;32049;52.346;4.870;2022-09-30T18:13:54;7.33;;;4.13;;
46330;SDS011;32049;52.346;4.870;2022-09-30T18:16:44;4.83;;;4.00;;
46330;SDS011;32049;52.346;4.870;2022-09-30T18:19:31;5.20;;;3.90;;
46330;SDS011;32049;52.346;4.870;2022-09-30T18:22:21;4.63;;;4.20;;
46330;SDS011;32049;52.346;4.870;2022-09-30T18:25:08;4.80;;;3.60;;
46330;SDS011;32049;52.346;4.870;2022-09-30T18:28:11;5.60;;;3.70;;
46330;SDS011;32049;52.346;4.870;2022-09-30T18:31:05;7.30;;;3.90;;
46330;SDS011;32049;52.346;4.870;2022-09-30T18:33:54;7.53;;;3.67;;
46330;SDS011;32049;52.346;4.870;2022-09-30T18:36:42;4.20;;;3.90;;
46330;SDS011;32049;52.346;4.870;2022-09-30T18:39:32;8.97;;;4.33;;
46330;SDS011;32049;52.346;4.870;2022-09-30T18:42:21;9.47;;;3.63;;
46330;SDS011;32049;52.346;4.870;2022-09-30T18:45:09;6.23;;;3.57;;
46330;SDS011;32049;52.346;4.870;2022-09-30T18:47:58;6.97;;;3.37;;
46330;SDS011;32049;52.346;4.870;2022-09-30T18:50:46;5.17;;;3.33;;
46330;SDS011;32049;52.346;4.870;2022-09-30T18:53:34;4.83;;;3.70;;
46330;SDS011;32049;52.346;4.870;2022-09-30T18:56:23;5.50;;;3.60;;
46330;SDS011;32049;52.346;4.870;2022-09-30T18:59:11;6.10;;;3.60;;
46330;SDS011;32049;52.346;4.870;2022-09-30T19:02:07;7.00;;;3.88;;
46330;SDS011;32049;52.346;4.870;2022-09-30T19:04:59;5.67;;;4.13;;
46330;SDS011;32049;52.346;4.870;2022-09-30T19:07:47;5.47;;;3.90;;
46330;SDS011;32049;52.346;4.870;2022-09-30T19:10:38;5.83;;;3.80;;
46330;SDS011;32049;52.346;4.870;2022-09-30T19:13:27;6.03;;;3.60;;
46330;SDS011;32049;52.346;4.870;2022-09-30T19:16:34;6.97;;;3.90;;
46330;SDS011;32049;52.346;4.870;2022-09-30T19:19:25;5.70;;;3.57;;
46330;SDS011;32049;52.346;4.870;2022-09-30T19:22:12;4.73;;;3.47;;
46330;SDS011;32049;52.346;4.870;2022-09-30T19:25:00;5.57;;;3.30;;
46330;SDS011;32049;52.346;4.870;2022-09-30T19:27:48;4.00;;;3.23;;
46330;SDS011;32049;52.346;4.870;2022-09-30T19:30:35;5.47;;;3.57;;
46330;SDS011;32049;52.346;4.870;2022-09-30T19:33:27;3.80;;;3.20;;
46330;SDS011;32049;52.346;4.870;2022-09-30T19:36:15;5.07;;;3.70;;
46330;SDS011;32049;52.346;4.870;2022-09-30T19:39:02;4.77;;;3.43;;
46330;SDS011;32049;52.346;4.870;2022-09-30T19:41:57;6.25;;;3.30;;
46330;SDS011;32049;52.346;4.870;2022-09-30T19:44:50;4.87;;;3.27;;
46330;SDS011;32049;52.346;4.870;2022-09-30T19:47:37;10.27;;;3.60;;
46330;SDS011;32049;52.346;4.870;2022-09-30T19:50:25;4.17;;;3.27;;
46330;SDS011;32049;52.346;4.870;2022-09-30T19:53:13;7.27;;;3.53;;
46330;SDS011;32049;52.346;4.870;2022-09-30T19:56:16;7.07;;;3.50;;
46330;SDS011;32049;52.346;4.870;2022-09-30T19:59:05;6.73;;;3.50;;
46330;SDS011;32049;52.346;4.870;2022-09-30T20:01:52;6.70;;;3.63;;
46330;SDS011;32049;52.346;4.870;2022-09-30T20:04:40;4.67;;;3.70;;
46330;SDS011;32049;52.346;4.870;2022-09-30T20:07:29;6.47;;;3.70;;
46330;SDS011;32049;52.346;4.870;2022-09-30T20:10:17;5.67;;;3.87;;
46330;SDS011;32049;52.346;4.870;2022-09-30T20:13:05;6.50;;;3.00;;
46330;SDS011;32049;52.346;4.870;2022-09-30T20:15:52;3.87;;;3.07;;
46330;SDS011;32049;52.346;4.870;2022-09-30T20:18:40;6.53;;;3.53;;
46330;SDS011;32049;52.346;4.870;2022-09-30T20:21:28;4.50;;;3.27;;
46330;SDS011;32049;52.346;4.870;2022-09-30T20:24:17;6.43;;;3.30;;
46330;SDS011;32049;52.346;4.870;2022-09-30T20:27:05;5.90;;;3.33;;
46330;SDS011;32049;52.346;4.870;2022-09-30T20:29:52;4.07;;;3.00;;
46330;SDS011;32049;52.346;4.870;2022-09-30T20:32:40;6.50;;;3.10;;
46330;SDS011;32049;52.346;4.870;2022-09-30T20:35:27;5.33;;;3.47;;
46330;SDS011;32049;52.346;4.870;2022-09-30T20:38:16;4.10;;;3.20;;
46330;SDS011;32049;52.346;4.870;2022-09-30T20:41:10;4.72;;;2.83;;
46330;SDS011;32049;52.346;4.870;2022-09-30T20:43:58;7.83;;;3.20;;
46330;SDS011;32049;52.346;4.870;2022-09-30T20:46:46;6.73;;;3.30;;
46330;SDS011;32049;52.346;4.870;2022-09-30T20:49:33;4.97;;;3.20;;
46330;SDS011;32049;52.346;4.870;2022-09-30T20:52:20;3.90;;;3.47;;
46330;SDS011;32049;52.346;4.870;2022-09-30T20:55:10;6.53;;;3.20;;
46330;SDS011;32049;52.346;4.870;2022-09-30T20:57:57;5.10;;;2.93;;
46330;SDS011;32049;52.346;4.870;2022-09-30T21:00:44;5.80;;;3.67;;
46330;SDS011;32049;52.346;4.870;2022-09-30T21:03:52;3.87;;;3.33;;
46330;SDS011;32049;52.346;4.870;2022-09-30T21:06:44;6.00;;;3.37;;
46330;SDS011;32049;52.346;4.870;2022-09-30T21:09:47;4.63;;;3.23;;
46330;SDS011;32049;52.346;4.870;2022-09-30T21:12:34;4.13;;;3.60;;
46330;SDS011;32049;52.346;4.870;2022-09-30T21:15:21;5.20;;;3.40;;
46330;SDS011;32049;52.346;4.870;2022-09-30T21:18:09;5.07;;;3.53;;
46330;SDS011;32049;52.346;4.870;2022-09-30T21:20:57;3.80;;;3.20;;
46330;SDS011;32049;52.346;4.870;2022-09-30T21:23:46;6.57;;;3.50;;
46330;SDS011;32049;52.346;4.870;2022-09-30T21:26:34;4.27;;;3.77;;
46330;SDS011;32049;52.346;4.870;2022-09-30T21:29:21;5.67;;;3.63;;
46330;SDS011;32049;52.346;4.870;2022-09-30T21:32:09;4.10;;;3.70;;
46330;SDS011;32049;52.346;4.870;2022-09-30T21:34:57;7.20;;;3.77;;
46330;SDS011;32049;52.346;4.870;2022-09-30T21:37:46;7.63;;;3.90;;
46330;SDS011;32049;52.346;4.870;2022-09-30T21:40:34;7.00;;;4.10;;
46330;SDS011;32049;52.346;4.870;2022-09-30T21:43:22;8.43;;;5.07;;
46330;SDS011;32049;52.346;4.870;2022-09-30T21:46:10;9.20;;;3.97;;
46330;SDS011;32049;52.346;4.870;2022-09-30T21:49:12;7.23;;;4.60;;
46330;SDS011;32049;52.346;4.870;2022-09-30T21:52:01;5.83;;;3.80;;
46330;SDS011;32049;52.346;4.870;2022-09-30T21:54:53;6.63;;;4.97;;
46330;SDS011;32049;52.346;4.870;2022-09-30T21:57:42;8.07;;;4.30;;
46330;SDS011;32049;52.346;4.870;2022-09-30T22:00:31;15.30;;;5.30;;
46330;SDS011;32049;52.346;4.870;2022-09-30T22:03:18;8.63;;;4.40;;
46330;SDS011;32049;52.346;4.870;2022-09-30T22:06:07;6.37;;;4.00;;
46330;SDS011;32049;52.346;4.870;2022-09-30T22:08:56;4.67;;;3.77;;
46330;SDS011;32049;52.346;4.870;2022-09-30T22:11:46;5.70;;;3.40;;
46330;SDS011;32049;52.346;4.870;2022-09-30T22:14:37;3.90;;;3.50;;
46330;SDS011;32049;52.346;4.870;2022-09-30T22:17:24;5.73;;;3.23;;
46330;SDS011;32049;52.346;4.870;2022-09-30T22:20:11;3.50;;;3.20;;
46330;SDS011;32049;52.346;4.870;2022-09-30T22:22:59;3.40;;;3.10;;
46330;SDS011;32049;52.346;4.870;2022-09-30T22:25:46;8.77;;;3.60;;
46330;SDS011;32049;52.346;4.870;2022-09-30T22:28:35;4.47;;;3.40;;
46330;SDS011;32049;52.346;4.870;2022-09-30T22:31:24;5.17;;;3.57;;
46330;SDS011;32049;52.346;4.870;2022-09-30T22:34:19;8.15;;;4.35;;
46330;SDS011;32049;52.346;4.870;2022-09-30T22:37:25;6.10;;;4.07;;
46330;SDS011;32049;52.346;4.870;2022-09-30T22:40:32;5.67;;;4.03;;
46330;SDS011;32049;52.346;4.870;2022-09-30T22:43:22;6.93;;;3.70;;
46330;SDS011;32049;52.346;4.870;2022-09-30T22:46:10;4.37;;;3.53;;
46330;SDS011;32049;52.346;4.870;2022-09-30T22:48:58;6.53;;;3.63;;
46330;SDS011;32049;52.346;4.870;2022-09-30T22:51:48;4.70;;;3.77;;
46330;SDS011;32049;52.346;4.870;2022-09-30T22:54:39;4.47;;;3.50;;
46330;SDS011;32049;52.346;4.870;2022-09-30T22:57:26;6.07;;;3.90;;
46330;SDS011;32049;52.346;4.870;2022-09-30T23:00:14;4.30;;;3.90;;
46330;SDS011;32049;52.346;4.870;2022-09-30T23:03:01;5.40;;;3.87;;
46330;SDS011;32049;52.346;4.870;2022-09-30T23:05:58;4.70;;;3.93;;
46330;SDS011;32049;52.346;4.870;2022-09-30T23:08:46;5.33;;;3.80;;
46330;SDS011;32049;52.346;4.870;2022-09-30T23:11:33;3.97;;;3.43;;
46330;SDS011;32049;52.346;4.870;2022-09-30T23:17:41;6.43;;;3.75;;
46330;SDS011;32049;52.346;4.870;2022-09-30T23:20:29;4.87;;;3.80;;
46330;SDS011;32049;52.346;4.870;2022-09-30T23:23:16;4.37;;;3.97;;
46330;SDS011;32049;52.346;4.870;2022-09-30T23:26:07;7.10;;;3.77;;
46330;SDS011;32049;52.346;4.870;2022-09-30T23:29:04;7.20;;;3.80;;
46330;SDS011;32049;52.346;4.870;2022-09-30T23:31:57;8.23;;;4.27;;
46330;SDS011;32049;52.346;4.870;2022-09-30T23:34:45;6.50;;;4.20;;
46330;SDS011;32049;52.346;4.870;2022-09-30T23:37:32;5.10;;;4.17;;
46330;SDS011;32049;52.346;4.870;2022-09-30T23:40:20;5.87;;;4.70;;
46330;SDS011;32049;52.346;4.870;2022-09-30T23:43:07;8.10;;;4.73;;
46330;SDS011;32049;52.346;4.870;2022-09-30T23:45:55;7.07;;;5.23;;
46330;SDS011;32049;52.346;4.870;2022-09-30T23:48:43;6.27;;;5.07;;
46330;SDS011;32049;52.346;4.870;2022-09-30T23:51:31;7.37;;;4.83;;
46330;SDS011;32049;52.346;4.870;2022-09-30T23:54:20;5.87;;;5.10;;
46330;SDS011;32049;52.346;4.870;2022-09-30T23:57:07;8.90;;;5.03;;
46330;SDS011;32049;52.346;4.870;2022-09-30T23:59:56;7.47;;;5.10;;
